Time;durP1;ratioP1;P1;durP2;ratioP2;P2;SDS_P1;SDS_P2;PMS_P1;PMS_P2;Temp;Humidity;BMP_temperature;BMP_pressure;BME280_temperature;BME280_humidity;BME280_pressure;Samples;Min_cycle;Max_cycle;Signal;HPM_P1;HPM_P2
2021/04/20 00:00:14;;;;;;;7.18;2.35;;;;;;;21.24;nan;102578.97;5054049;28;20116;-59
2021/04/20 00:02:40;;;;;;;5.18;2.00;;;;;;;21.16;nan;102573.31;5054161;28;20029;-59
2021/04/20 00:05:08;;;;;;;5.40;2.00;;;;;;;21.67;nan;102569.28;5054066;28;20079;-59
2021/04/20 00:07:34;;;;;;;4.25;2.10;;;;;;;21.96;nan;102570.97;5054094;28;20047;-59
2021/04/20 00:09:59;;;;;;;5.22;2.28;;;;;;;22.04;nan;102562.88;5054200;28;20024;-59
2021/04/20 00:12:24;;;;;;;5.68;2.40;;;;;;;22.11;nan;102566.75;5053815;28;20025;-59
2021/04/20 00:14:50;;;;;;;9.02;2.65;;;;;;;22.14;nan;102558.19;5053832;28;20104;-59
2021/04/20 00:17:15;;;;;;;5.10;2.03;;;;;;;22.24;nan;102553.53;5053689;28;20025;-59
2021/04/20 00:19:40;;;;;;;7.40;2.97;;;;;;;22.24;nan;102548.03;5053897;28;20093;-59
2021/04/20 00:22:06;;;;;;;5.50;2.15;;;;;;;22.33;nan;102547.09;5053882;28;20031;-59
2021/04/20 00:24:31;;;;;;;4.88;2.15;;;;;;;22.34;nan;102542.47;5053245;28;20067;-60
2021/04/20 00:26:56;;;;;;;5.55;2.15;;;;;;;22.34;nan;102543.34;5053336;28;20464;-59
2021/04/20 00:29:22;;;;;;;5.07;2.30;;;;;;;22.35;nan;102528.63;5053433;28;20029;-59
2021/04/20 00:31:47;;;;;;;4.80;1.98;;;;;;;22.41;nan;102538.97;5053695;28;20051;-59
2021/04/20 00:34:12;;;;;;;6.07;2.22;;;;;;;22.28;nan;102527.53;5035519;28;20090;-59
2021/04/20 00:36:37;;;;;;;5.40;2.20;;;;;;;21.93;nan;102531.06;5053482;28;20033;-59
2021/04/20 00:39:03;;;;;;;4.90;2.03;;;;;;;21.77;nan;102542.72;5053451;28;20086;-59
2021/04/20 00:41:28;;;;;;;6.65;2.47;;;;;;;21.65;nan;102535.72;5053401;28;20035;-59
2021/04/20 00:43:54;;;;;;;3.97;2.05;;;;;;;21.57;nan;102533.75;5053556;28;20024;-59
2021/04/20 00:46:21;;;;;;;5.03;2.00;;;;;;;21.47;nan;102534.81;5053093;28;20029;-59
2021/04/20 00:48:47;;;;;;;4.13;1.80;;;;;;;21.40;nan;102525.50;5053136;28;20051;-59
2021/04/20 00:51:13;;;;;;;5.50;1.98;;;;;;;21.38;nan;102520.16;5053164;28;20033;-59
2021/04/20 00:53:39;;;;;;;6.38;2.03;;;;;;;21.34;nan;102515.16;5053331;28;20059;-59
2021/04/20 00:56:05;;;;;;;6.07;2.90;;;;;;;21.30;nan;102520.91;5052797;28;20056;-59
2021/04/20 00:58:30;;;;;;;5.43;2.05;;;;;;;21.26;nan;102516.75;5052930;28;20029;-59
2021/04/20 01:00:57;;;;;;;7.32;2.33;;;;;;;21.20;nan;102509.13;5053106;28;20036;-59
2021/04/20 01:03:23;;;;;;;5.10;2.08;;;;;;;21.16;nan;102506.81;5052952;28;20020;-59
2021/04/20 01:05:49;;;;;;;5.78;2.28;;;;;;;21.16;nan;102510.41;5053081;28;20532;-59
2021/04/20 01:08:18;;;;;;;4.85;1.95;;;;;;;21.12;nan;102510.88;5052851;28;20036;-59
2021/04/20 01:10:46;;;;;;;5.43;2.10;;;;;;;21.12;nan;102506.25;5053011;28;20021;-59
2021/04/20 01:13:13;;;;;;;4.47;2.00;;;;;;;21.11;nan;102498.22;5053069;28;20094;-59
2021/04/20 01:15:42;;;;;;;5.28;2.10;;;;;;;21.07;nan;102507.75;5052739;28;20032;-59
2021/04/20 01:18:14;;;;;;;4.43;2.05;;;;;;;21.03;nan;102507.19;5052705;28;20036;-58
2021/04/20 01:20:44;;;;;;;4.20;1.92;;;;;;;21.10;nan;102508.28;5052821;28;20024;-59
2021/04/20 01:23:14;;;;;;;5.45;2.00;;;;;;;21.03;nan;102501.72;5052752;28;20377;-59
2021/04/20 01:25:41;;;;;;;4.53;2.00;;;;;;;21.04;nan;102503.44;5052566;28;20107;-59
2021/04/20 01:28:07;;;;;;;5.93;2.30;;;;;;;21.05;nan;102499.69;5052624;28;20021;-59
2021/04/20 01:30:34;;;;;;;5.28;2.05;;;;;;;21.02;nan;102505.47;5052664;28;20029;-59
2021/04/20 01:33:05;;;;;;;3.65;1.95;;;;;;;21.00;nan;102504.75;5052667;28;20626;-59
2021/04/20 01:35:33;;;;;;;6.65;2.20;;;;;;;20.98;nan;102501.28;5052370;28;20025;-59
2021/04/20 01:38:06;;;;;;;5.95;1.95;;;;;;;20.93;nan;102498.13;5052624;28;20029;-59
2021/04/20 01:40:32;;;;;;;6.93;2.20;;;;;;;20.94;nan;102492.50;5052549;28;20094;-59
2021/04/20 01:42:59;;;;;;;6.00;2.30;;;;;;;20.93;nan;102489.94;5052459;28;20474;-59
2021/04/20 01:45:26;;;;;;;5.40;2.35;;;;;;;20.92;nan;102490.94;5034652;28;20388;-59
2021/04/20 01:47:53;;;;;;;5.85;2.15;;;;;;;20.95;nan;102493.38;5052578;28;20170;-59
2021/04/20 01:50:18;;;;;;;5.95;2.67;;;;;;;21.58;nan;102496.28;5052221;28;20021;-59
2021/04/20 01:52:44;;;;;;;4.20;2.30;;;;;;;21.69;nan;102498.81;5052471;28;20486;-59
2021/04/20 01:55:12;;;;;;;4.50;1.95;;;;;;;21.76;nan;102488.97;5051722;28;20041;-59
2021/04/20 01:57:38;;;;;;;6.15;2.15;;;;;;;21.83;nan;102479.09;5034440;28;20025;-58
2021/04/20 02:00:12;;;;;;;5.68;2.38;;;;;;;21.88;nan;102482.25;5052203;28;20067;-58
2021/04/20 02:02:39;;;;;;;4.70;2.08;;;;;;;21.97;nan;102474.13;5052362;28;20036;-59
2021/04/20 02:05:08;;;;;;;5.30;2.20;;;;;;;21.99;nan;102480.28;5052178;28;20407;-58
2021/04/20 02:07:35;;;;;;;4.47;2.60;;;;;;;22.00;nan;102477.41;5034399;28;20059;-59
2021/04/20 02:10:03;;;;;;;6.30;2.35;;;;;;;22.07;nan;102469.47;5052351;28;20024;-59
2021/04/20 02:12:29;;;;;;;7.82;2.60;;;;;;;22.10;nan;102469.16;5052114;28;20017;-59
2021/04/20 02:14:54;;;;;;;4.18;2.35;;;;;;;22.14;nan;102470.53;5051855;28;20021;-59
2021/04/20 02:17:22;;;;;;;4.78;2.20;;;;;;;22.21;nan;102468.91;5051928;28;20021;-59
2021/04/20 02:19:48;;;;;;;4.68;1.95;;;;;;;22.25;nan;102461.22;5052540;28;20171;-59
2021/04/20 02:22:14;;;;;;;6.65;2.55;;;;;;;22.31;nan;102455.09;5052033;28;20511;-59
2021/04/20 02:24:39;;;;;;;5.13;2.20;;;;;;;22.35;nan;102457.41;5052081;28;20028;-59
2021/04/20 02:27:05;;;;;;;4.15;1.85;;;;;;;22.39;nan;102453.31;5051984;28;20112;-59
2021/04/20 02:29:30;;;;;;;5.90;2.22;;;;;;;21.91;nan;102461.91;5051979;28;20189;-59
2021/04/20 02:31:56;;;;;;;6.25;2.33;;;;;;;21.60;nan;102455.94;5052138;28;20111;-59
2021/04/20 02:34:21;;;;;;;5.93;2.47;;;;;;;21.48;nan;102462.63;5051865;28;20037;-59
2021/04/20 02:36:48;;;;;;;8.45;2.40;;;;;;;21.43;nan;102465.84;5051802;28;20048;-59
2021/04/20 02:39:14;;;;;;;6.80;2.70;;;;;;;21.36;nan;102458.41;5051805;28;20036;-59
2021/04/20 02:41:40;;;;;;;4.72;1.95;;;;;;;21.27;nan;102458.28;5052036;28;20040;-59
2021/04/20 02:44:09;;;;;;;4.72;2.15;;;;;;;21.20;nan;102451.69;5051918;28;20105;-59
2021/04/20 02:46:38;;;;;;;6.05;2.30;;;;;;;21.18;nan;102456.44;5051926;28;20047;-58
2021/04/20 02:49:04;;;;;;;4.25;2.22;;;;;;;21.10;nan;102447.25;5053893;28;20029;-59
2021/04/20 02:51:31;;;;;;;4.28;2.20;;;;;;;21.10;nan;102442.66;5055494;28;20043;-59
2021/04/20 02:53:56;;;;;;;5.03;2.53;;;;;;;21.10;nan;102445.41;5055666;28;20033;-59
2021/04/20 02:56:23;;;;;;;4.30;1.95;;;;;;;21.06;nan;102445.84;5054832;28;20132;-59
2021/04/20 02:58:49;;;;;;;4.05;1.75;;;;;;;21.00;nan;102442.72;5055357;28;20025;-59
2021/04/20 03:01:22;;;;;;;4.18;1.85;;;;;;;20.97;nan;102443.00;5055254;28;20502;-59
2021/04/20 03:03:49;;;;;;;6.70;2.30;;;;;;;20.97;nan;102442.13;5055431;28;20043;-59
2021/04/20 03:06:14;;;;;;;5.75;2.13;;;;;;;20.93;nan;102440.72;5054612;28;20020;-60
2021/04/20 03:08:44;;;;;;;6.03;2.22;;;;;;;20.94;nan;102431.50;5055299;28;20029;-59
2021/04/20 03:11:40;;;;;;;6.30;2.70;;;;;;;20.89;nan;102422.91;5054978;28;20020;-59
2021/04/20 03:14:06;;;;;;;5.32;1.88;;;;;;;20.90;nan;102414.53;4973879;28;20117;-59
2021/04/20 03:16:33;;;;;;;4.10;1.88;;;;;;;20.88;nan;102410.25;4973650;28;20035;-58
2021/04/20 03:19:00;;;;;;;5.32;2.60;;;;;;;20.91;nan;102404.47;4972680;28;20073;-59
2021/04/20 03:21:26;;;;;;;4.13;1.70;;;;;;;20.86;nan;102406.81;4973668;28;20045;-58
2021/04/20 03:23:53;;;;;;;5.95;2.47;;;;;;;20.85;nan;102399.63;4973994;28;20034;-59
2021/04/20 03:26:24;;;;;;;7.25;2.53;;;;;;;20.83;nan;102412.59;4973475;28;20094;-58
2021/04/20 03:28:52;;;;;;;6.65;2.42;;;;;;;20.77;nan;102403.09;4973769;28;20196;-59
2021/04/20 03:31:17;;;;;;;4.13;2.13;;;;;;;20.80;nan;102401.91;4973530;28;20133;-58
2021/04/20 03:33:46;;;;;;;6.75;2.13;;;;;;;20.78;nan;102398.47;4973830;28;20034;-59
2021/04/20 03:36:14;;;;;;;4.25;2.00;;;;;;;20.76;nan;102393.16;4973077;28;20042;-59
2021/04/20 03:38:54;;;;;;;5.25;2.00;;;;;;;21.08;nan;102398.19;4973436;28;20034;-58
2021/04/20 03:41:25;;;;;;;4.35;2.25;;;;;;;21.48;nan;102380.53;4973378;28;20030;-59
2021/04/20 03:43:52;;;;;;;4.85;2.28;;;;;;;21.59;nan;102383.06;4973560;28;20454;-59
2021/04/20 03:46:23;;;;;;;5.55;1.90;;;;;;;21.65;nan;102376.97;4973189;28;20474;-59
2021/04/20 03:49:21;;;;;;;6.43;2.28;;;;;;;21.74;nan;102376.03;4973286;28;20034;-58
2021/04/20 03:51:50;;;;;;;6.28;2.83;;;;;;;21.78;nan;102371.09;4948187;29;20039;-59
2021/04/20 03:54:16;;;;;;;5.50;2.15;;;;;;;21.86;nan;102361.09;4953813;29;20114;-59
2021/04/20 03:56:46;;;;;;;4.07;2.00;;;;;;;21.88;nan;102370.00;4953620;29;20562;-59
2021/04/20 03:59:14;;;;;;;5.82;2.03;;;;;;;21.91;nan;102372.41;4953440;28;20062;-59
2021/04/20 04:01:43;;;;;;;6.63;2.25;;;;;;;22.48;nan;102367.38;4953078;29;20111;-58
2021/04/20 04:04:12;;;;;;;4.90;2.00;;;;;;;23.54;nan;102358.72;4953754;29;20497;-59
2021/04/20 04:06:40;;;;;;;6.80;2.72;;;;;;;23.86;nan;102357.94;4953376;29;20042;-59
2021/04/20 04:09:08;;;;;;;3.95;2.05;;;;;;;24.01;nan;102356.16;4953570;29;20116;-58
2021/04/20 04:11:37;;;;;;;3.92;2.25;;;;;;;23.77;nan;102350.69;4953760;29;20019;-59
2021/04/20 04:14:04;;;;;;;4.93;2.10;;;;;;;23.67;nan;102357.19;4953770;29;20110;-59
2021/04/20 04:16:31;;;;;;;5.05;2.28;;;;;;;23.69;nan;102349.69;4953409;29;20031;-59
2021/04/20 04:18:59;;;;;;;5.70;2.67;;;;;;;23.73;nan;102343.84;4953424;29;20058;-59
2021/04/20 04:21:31;;;;;;;5.88;2.00;;;;;;;23.76;nan;102338.00;4953398;29;20035;-59
2021/04/20 04:24:02;;;;;;;4.97;2.22;;;;;;;23.77;nan;102331.47;4953873;29;20403;-59
2021/04/20 04:26:30;;;;;;;5.50;2.30;;;;;;;23.79;nan;102326.66;4953246;29;20127;-59
2021/04/20 04:29:01;;;;;;;4.90;2.00;;;;;;;23.80;nan;102334.72;5037438;28;20062;-59
2021/04/20 04:31:28;;;;;;;5.57;2.65;;;;;;;23.80;nan;102331.13;5053888;28;20017;-59
2021/04/20 04:33:55;;;;;;;5.97;2.28;;;;;;;23.96;nan;102328.38;5054095;28;20025;-59
2021/04/20 04:36:21;;;;;;;4.57;1.83;;;;;;;23.81;nan;102319.97;5053272;28;20016;-59
2021/04/20 04:38:47;;;;;;;5.53;2.33;;;;;;;23.93;nan;102315.84;5053495;28;20436;-59
2021/04/20 04:41:12;;;;;;;5.53;2.22;;;;;;;23.99;nan;102317.88;5053358;28;20071;-59
2021/04/20 04:43:40;;;;;;;9.25;2.63;;;;;;;23.97;nan;102324.59;5053773;28;20029;-59
2021/04/20 04:46:06;;;;;;;5.78;2.42;;;;;;;23.97;nan;102319.09;5053313;28;20021;-59
2021/04/20 04:48:32;;;;;;;4.68;2.13;;;;;;;23.98;nan;102304.34;5053108;28;20048;-59
2021/04/20 04:51:01;;;;;;;5.45;2.00;;;;;;;24.08;nan;102320.63;5053373;28;20066;-59
2021/04/20 04:53:27;;;;;;;5.53;2.25;;;;;;;24.07;nan;102306.03;5053740;28;20028;-59
2021/04/20 04:56:03;;;;;;;5.93;2.22;;;;;;;24.09;nan;102317.72;5053047;28;20037;-59
2021/04/20 04:58:30;;;;;;;5.90;2.20;;;;;;;24.19;nan;102315.66;5050905;28;20037;-59
2021/04/20 05:00:58;;;;;;;5.65;2.40;;;;;;;24.16;nan;102307.72;5052873;28;20028;-59
2021/04/20 05:03:24;;;;;;;5.18;2.45;;;;;;;24.15;nan;102295.03;5053193;28;20112;-58
2021/04/20 05:05:59;;;;;;;6.68;2.58;;;;;;;24.21;nan;102304.47;5034751;28;20503;-59
2021/04/20 05:08:24;;;;;;;5.30;2.35;;;;;;;24.22;nan;102290.56;5052933;28;20028;-59
2021/04/20 05:10:50;;;;;;;5.53;2.45;;;;;;;24.17;nan;102286.59;5052736;28;20036;-59
2021/04/20 05:13:19;;;;;;;6.30;2.60;;;;;;;24.25;nan;102283.84;5052686;28;20028;-59
2021/04/20 05:15:45;;;;;;;5.15;2.10;;;;;;;24.21;nan;102280.59;5052913;28;20029;-59
2021/04/20 05:18:14;;;;;;;5.78;2.40;;;;;;;24.26;nan;102286.41;5052668;28;20043;-59
2021/04/20 05:20:46;;;;;;;5.47;2.22;;;;;;;24.26;nan;102286.41;5052879;28;20053;-59
2021/04/20 05:23:18;;;;;;;5.43;2.10;;;;;;;24.32;nan;102287.63;5052693;28;20025;-59
2021/04/20 05:25:44;;;;;;;4.13;1.92;;;;;;;24.23;nan;102284.03;5052777;28;20032;-59
2021/04/20 05:28:10;;;;;;;5.25;2.47;;;;;;;24.25;nan;102276.47;5052540;28;20469;-59
2021/04/20 05:30:36;;;;;;;4.72;2.20;;;;;;;24.29;nan;102279.75;5052638;28;20029;-59
2021/04/20 05:33:03;;;;;;;4.85;2.22;;;;;;;24.32;nan;102284.03;5052618;28;20040;-59
2021/04/20 05:35:28;;;;;;;4.38;2.00;;;;;;;24.35;nan;102278.16;5051975;28;20013;-59
2021/04/20 05:37:54;;;;;;;4.57;2.22;;;;;;;24.38;nan;102256.72;5051979;28;20420;-59
2021/04/20 05:40:21;;;;;;;7.85;2.25;;;;;;;24.44;nan;102277.97;5051009;28;20036;-60
2021/04/20 05:42:47;;;;;;;11.07;2.97;;;;;;;24.36;nan;102269.78;5054257;28;20515;-59
2021/04/20 05:45:14;;;;;;;5.70;2.15;;;;;;;24.35;nan;102267.19;5050503;28;20120;-59
2021/04/20 05:47:44;;;;;;;4.85;2.50;;;;;;;24.25;nan;102254.47;5052409;28;20380;-58
2021/04/20 05:50:32;;;;;;;4.93;1.80;;;;;;;24.30;nan;102260.31;5052243;28;20016;-59
2021/04/20 05:52:59;;;;;;;6.57;2.22;;;;;;;24.37;nan;102262.38;5044287;28;20036;-59
2021/04/20 05:55:25;;;;;;;5.97;2.50;;;;;;;24.36;nan;102252.44;5051992;28;20095;-59
2021/04/20 05:57:52;;;;;;;4.20;2.00;;;;;;;24.36;nan;102260.66;5051524;28;20029;-60
2021/04/20 06:00:20;;;;;;;6.63;2.20;;;;;;;24.30;nan;102262.22;5050968;28;20043;-59
2021/04/20 06:02:47;;;;;;;5.47;2.00;;;;;;;24.18;nan;102244.34;5055637;28;20104;-59
2021/04/20 06:05:19;;;;;;;4.40;2.00;;;;;;;24.27;nan;102255.16;5054844;28;20025;-60
2021/04/20 06:07:47;;;;;;;5.07;1.77;;;;;;;24.32;nan;102256.53;5050723;28;20048;-61
2021/04/20 06:10:14;;;;;;;6.65;2.22;;;;;;;24.42;nan;102243.47;5055499;28;20025;-60
2021/04/20 06:12:40;;;;;;;4.38;1.90;;;;;;;24.37;nan;102243.16;5054160;28;20369;-59
2021/04/20 06:15:08;;;;;;;6.55;2.45;;;;;;;24.43;nan;102240.53;5051665;28;20017;-59
2021/04/20 06:17:34;;;;;;;6.65;2.30;;;;;;;24.49;nan;102241.69;5053269;28;20183;-59
2021/04/20 06:20:04;;;;;;;6.75;2.20;;;;;;;24.51;nan;102245.13;5054902;28;20399;-60
2021/04/20 06:22:30;;;;;;;4.03;2.10;;;;;;;24.44;nan;102234.00;5035188;28;20051;-60
2021/04/20 06:24:56;;;;;;;4.80;2.28;;;;;;;24.39;nan;102217.19;5059327;28;20284;-60
2021/04/20 06:27:22;;;;;;;4.13;2.00;;;;;;;24.59;nan;102231.34;5058862;28;20051;-59
2021/04/20 06:29:47;;;;;;;6.03;2.60;;;;;;;24.54;nan;102234.66;5059154;28;20020;-59
2021/04/20 06:32:13;;;;;;;4.28;1.90;;;;;;;24.47;nan;102233.63;5058674;28;20032;-59
2021/04/20 06:34:39;;;;;;;5.03;2.13;;;;;;;24.56;nan;102239.97;5055909;28;20021;-59
2021/04/20 06:37:09;;;;;;;4.28;2.10;;;;;;;24.49;nan;102242.56;5037169;28;20028;-59
2021/04/20 06:39:37;;;;;;;9.35;2.70;;;;;;;24.53;nan;102232.06;5055691;28;20063;-58
2021/04/20 06:42:06;;;;;;;5.60;2.38;;;;;;;24.55;nan;102235.50;5057742;28;20392;-58
2021/04/20 06:44:51;;;;;;;6.90;3.25;;;;;;;24.54;nan;102233.78;5055082;28;20361;-59
2021/04/20 06:47:22;;;;;;;5.97;2.42;;;;;;;24.54;nan;102225.53;5038478;28;20021;-59
2021/04/20 06:49:53;;;;;;;5.50;2.40;;;;;;;24.57;nan;102216.94;5057936;28;20028;-60
2021/04/20 06:52:59;;;;;;;6.32;2.40;;;;;;;24.46;nan;102233.81;5054922;28;20438;-59
2021/04/20 06:55:33;;;;;;;5.03;2.45;;;;;;;24.46;nan;102220.91;4952878;28;20070;-60
2021/04/20 06:58:09;;;;;;;5.90;2.35;;;;;;;24.53;nan;102221.94;4954806;29;20038;-63
2021/04/20 07:00:48;;;;;;;7.40;2.25;;;;;;;24.49;nan;102214.19;4954154;28;20039;-61
2021/04/20 07:03:34;;;;;;;5.50;2.20;;;;;;;24.54;nan;102217.28;4954796;29;20398;-62
2021/04/20 07:06:20;;;;;;;8.77;2.08;;;;;;;24.55;nan;102214.38;4954907;29;20467;-64
2021/04/20 07:08:56;;;;;;;6.32;2.40;;;;;;;24.55;nan;102219.88;4954089;28;20027;-62
2021/04/20 07:11:24;;;;;;;4.53;2.03;;;;;;;24.59;nan;102201.09;4936683;29;20031;-61
2021/04/20 07:13:53;;;;;;;5.78;1.98;;;;;;;24.63;nan;102196.09;4947679;28;20382;-61
2021/04/20 07:16:33;;;;;;;4.93;2.20;;;;;;;24.60;nan;102195.41;4935318;29;20027;-62
2021/04/20 07:19:16;;;;;;;5.88;2.40;;;;;;;24.59;nan;102193.72;4937119;28;20058;-61
2021/04/20 07:22:00;;;;;;;4.88;1.60;;;;;;;24.61;nan;102196.28;4953937;28;20534;-59
2021/04/20 07:24:31;;;;;;;3.55;1.80;;;;;;;24.52;nan;102187.22;4947557;28;20070;-64
2021/04/20 07:27:31;;;;;;;3.97;1.88;;;;;;;24.64;nan;102189.56;4919475;29;20044;-63
2021/04/20 07:30:23;;;;;;;5.10;2.10;;;;;;;24.65;nan;102186.63;5026019;28;20033;-62
2021/04/20 07:33:18;;;;;;;5.45;1.95;;;;;;;24.76;nan;102186.22;4953506;28;20390;-65
2021/04/20 07:36:17;;;;;;;5.22;2.08;;;;;;;24.70;nan;102177.84;4950544;28;20150;-61
2021/04/20 07:39:01;;;;;;;6.57;2.17;;;;;;;24.71;nan;102180.41;4956503;28;20043;-63
2021/04/20 07:41:52;;;;;;;7.75;2.50;;;;;;;24.68;nan;102174.41;4940275;28;20035;-60
2021/04/20 07:44:23;;;;;;;3.45;1.85;;;;;;;24.72;nan;102162.88;4928690;29;20038;-60
2021/04/20 07:46:53;;;;;;;6.75;1.83;;;;;;;24.73;nan;102161.84;4953401;28;20031;-59
2021/04/20 07:49:27;;;;;;;4.30;2.47;;;;;;;24.72;nan;102165.63;4936215;29;20031;-61
2021/04/20 07:52:03;;;;;;;6.95;2.35;;;;;;;24.67;nan;102162.53;4954169;29;20505;-60
2021/04/20 07:54:55;;;;;;;6.82;2.20;;;;;;;24.75;nan;102159.75;4952859;28;20046;-59
2021/04/20 07:57:26;;;;;;;5.75;2.53;;;;;;;24.74;nan;102158.03;4938087;28;20043;-63
2021/04/20 08:00:19;;;;;;;7.13;2.05;;;;;;;24.90;nan;102155.19;4950932;28;20034;-67
2021/04/20 08:02:54;;;;;;;6.30;2.50;;;;;;;24.88;nan;102154.50;4950329;28;20447;-62
2021/04/20 08:05:30;;;;;;;6.95;1.95;;;;;;;24.88;nan;102148.16;4950220;28;20027;-63
2021/04/20 08:08:17;;;;;;;8.55;2.90;;;;;;;24.90;nan;102152.44;4934648;28;20035;-62
2021/04/20 08:10:58;;;;;;;6.50;1.95;;;;;;;24.77;nan;102140.31;5020160;28;20498;-67
2021/04/20 08:13:39;;;;;;;5.68;1.50;;;;;;;24.64;nan;102140.06;5052900;28;20036;-69
2021/04/20 08:16:17;;;;;;;3.63;1.13;;;;;;;24.75;nan;102148.75;5053556;28;20029;-70
2021/04/20 08:18:54;;;;;;;0.90;0.50;;;;;;;24.54;nan;102141.16;5051530;28;20067;-72
2021/04/20 08:21:21;;;;;;;0.98;0.22;;;;;;;24.56;nan;102138.22;5053661;28;20389;-71
2021/04/20 08:23:49;;;;;;;0.40;0.22;;;;;;;24.50;nan;102138.94;5053599;28;20063;-67
2021/04/20 08:26:29;;;;;;;0.75;0.38;;;;;;;24.46;nan;102132.09;5051829;28;20036;-64
2021/04/20 08:29:04;;;;;;;3.80;1.40;;;;;;;24.65;nan;102125.28;5051019;28;20472;-62
2021/04/20 08:31:48;;;;;;;5.05;2.13;;;;;;;24.56;nan;102121.75;5044278;28;20033;-60
2021/04/20 08:34:32;;;;;;;5.93;1.80;;;;;;;24.70;nan;102118.22;5047832;28;20029;-61
2021/04/20 08:37:21;;;;;;;3.20;1.48;;;;;;;24.76;nan;102125.72;5053885;28;20020;-59
2021/04/20 08:40:07;;;;;;;5.05;1.40;;;;;;;24.67;nan;102123.19;5053495;28;20025;-64
2021/04/20 08:42:43;;;;;;;3.97;1.45;;;;;;;24.74;nan;102124.19;5052556;28;20028;-59
2021/04/20 08:45:11;;;;;;;7.43;2.22;;;;;;;24.66;nan;102115.97;5053232;28;20033;-59
2021/04/20 08:48:14;;;;;;;5.30;1.75;;;;;;;24.77;nan;102118.31;5033683;28;20021;-61
2021/04/20 08:50:46;;;;;;;5.53;1.63;;;;;;;24.72;nan;102121.63;5022956;28;20185;-61
2021/04/20 08:53:34;;;;;;;5.38;1.70;;;;;;;25.00;nan;102102.66;5033289;28;20036;-61
2021/04/20 08:56:14;;;;;;;4.35;1.80;;;;;;;24.96;nan;102103.19;5039997;28;20036;-59
2021/04/20 08:58:54;;;;;;;5.30;2.55;;;;;;;24.98;nan;102110.22;5054411;28;20024;-61
2021/04/20 09:01:56;;;;;;;4.53;2.10;;;;;;;25.07;nan;102105.56;5056434;28;20509;-62
2021/04/20 09:04:45;;;;;;;6.68;2.10;;;;;;;24.96;nan;102106.81;5055786;28;20124;-61
2021/04/20 09:07:32;;;;;;;7.93;3.10;;;;;;;25.04;nan;102104.03;5038442;28;20027;-61
2021/04/20 09:10:12;;;;;;;5.60;2.42;;;;;;;25.04;nan;102097.69;5053086;28;20032;-62
2021/04/20 09:12:39;;;;;;;7.43;2.83;;;;;;;25.03;nan;102102.31;5052915;28;20036;-62
2021/04/20 09:15:05;;;;;;;8.85;3.05;;;;;;;24.93;nan;102100.81;5052814;28;20039;-62
2021/04/20 09:17:38;;;;;;;7.18;2.75;;;;;;;24.97;nan;102093.91;5052585;28;20020;-61
2021/04/20 09:20:13;;;;;;;6.28;3.00;;;;;;;24.94;nan;102086.03;5052376;28;20024;-62
2021/04/20 09:23:02;;;;;;;9.75;2.75;;;;;;;24.95;nan;102077.59;5032863;28;20480;-63
2021/04/20 09:25:56;;;;;;;4.88;1.85;;;;;;;24.97;nan;102082.91;5032578;28;20415;-63
2021/04/20 09:28:28;;;;;;;8.93;2.73;;;;;;;25.06;nan;102090.09;5033871;28;20051;-61
2021/04/20 09:30:56;;;;;;;8.13;2.40;;;;;;;25.09;nan;102078.69;5056269;28;20293;-65
2021/04/20 09:33:33;;;;;;;6.30;2.05;;;;;;;25.07;nan;102078.03;5053321;28;20028;-62
2021/04/20 09:36:00;;;;;;;6.03;2.00;;;;;;;25.08;nan;102066.00;5032748;28;20148;-62
2021/04/20 09:38:26;;;;;;;8.50;1.85;;;;;;;25.10;nan;102066.66;5024435;28;20420;-61
2021/04/20 09:40:53;;;;;;;5.57;2.20;;;;;;;25.12;nan;102059.91;5053305;28;20056;-62
2021/04/20 09:43:24;;;;;;;9.25;2.03;;;;;;;25.16;nan;102053.00;5052030;28;20028;-63
2021/04/20 09:46:08;;;;;;;6.43;2.50;;;;;;;25.05;nan;102058.13;5054225;28;20029;-64
2021/04/20 09:48:46;;;;;;;10.00;3.20;;;;;;;25.04;nan;102045.41;5052720;28;20028;-64
2021/04/20 09:51:31;;;;;;;8.18;2.42;;;;;;;25.04;nan;102053.66;5057038;28;20029;-62
2021/04/20 09:54:03;;;;;;;7.13;2.38;;;;;;;25.09;nan;102041.03;5052203;28;20066;-59
2021/04/20 09:56:45;;;;;;;9.57;2.47;;;;;;;25.18;nan;102034.38;5052014;28;20447;-61
2021/04/20 09:59:18;;;;;;;6.65;2.22;;;;;;;25.10;nan;102030.88;5056021;28;20028;-61
2021/04/20 10:02:28;;;;;;;6.20;2.35;;;;;;;25.00;nan;102030.28;5056511;28;20025;-61
2021/04/20 10:05:16;;;;;;;6.95;2.10;;;;;;;25.13;nan;102025.00;5014266;28;20068;-60
2021/04/20 10:08:22;;;;;;;5.40;2.63;;;;;;;25.19;nan;102018.72;5014313;28;20030;-63
2021/04/20 10:10:54;;;;;;;4.97;2.05;;;;;;;25.13;nan;102019.50;5014291;28;20018;-61
2021/04/20 10:13:34;;;;;;;4.68;1.88;;;;;;;25.12;nan;102017.78;5014007;28;20029;-64
2021/04/20 10:16:21;;;;;;;8.10;2.58;;;;;;;25.07;nan;102020.25;5014202;28;20049;-62
2021/04/20 10:19:02;;;;;;;7.13;2.80;;;;;;;25.01;nan;102004.47;5013890;28;20034;-62
2021/04/20 10:21:34;;;;;;;6.07;2.35;;;;;;;24.98;nan;102008.44;5013739;28;20038;-62
2021/04/20 10:24:30;;;;;;;7.22;2.30;;;;;;;24.95;nan;102002.47;5014097;28;20080;-62
2021/04/20 10:27:12;;;;;;;15.32;3.28;;;;;;;24.92;nan;102000.94;4973509;28;20051;-61
2021/04/20 10:29:49;;;;;;;7.63;2.08;;;;;;;24.96;nan;101990.41;4970135;28;20050;-63
2021/04/20 10:32:18;;;;;;;6.72;2.72;;;;;;;25.02;nan;101996.03;4971623;28;20145;-62
2021/04/20 10:34:46;;;;;;;4.03;1.95;;;;;;;24.97;nan;101992.13;4974885;28;20089;-61
2021/04/20 10:37:12;;;;;;;6.57;3.05;;;;;;;25.02;nan;101989.69;4974589;28;20094;-62
2021/04/20 10:39:45;;;;;;;4.18;2.00;;;;;;;24.90;nan;101979.13;4974479;28;20034;-61
2021/04/20 10:42:11;;;;;;;5.70;2.40;;;;;;;24.97;nan;101987.47;4990397;28;20313;-62
2021/04/20 10:44:37;;;;;;;6.47;2.60;;;;;;;24.93;nan;101977.88;4994025;28;20468;-62
2021/04/20 10:47:04;;;;;;;8.07;2.65;;;;;;;24.98;nan;101982.81;4994023;28;20174;-61
2021/04/20 10:49:31;;;;;;;6.30;2.50;;;;;;;24.96;nan;101974.75;4993772;28;20026;-62
2021/04/20 10:52:00;;;;;;;6.80;2.45;;;;;;;24.99;nan;101973.53;4994107;28;20049;-62
2021/04/20 10:54:35;;;;;;;5.40;2.35;;;;;;;25.01;nan;101975.06;4993634;28;20053;-62
2021/04/20 10:57:02;;;;;;;5.55;2.38;;;;;;;25.03;nan;101972.16;4993799;28;20049;-62
2021/04/20 10:59:36;;;;;;;7.38;2.63;;;;;;;24.97;nan;101976.47;4993463;28;20033;-61
2021/04/20 11:02:05;;;;;;;5.30;1.98;;;;;;;24.88;nan;101961.97;4993735;28;20121;-62
2021/04/20 11:04:36;;;;;;;6.45;2.50;;;;;;;24.95;nan;101958.44;5035363;28;20025;-62
2021/04/20 11:07:55;;;;;;;6.78;2.45;;;;;;;24.95;nan;101962.03;5035297;28;20091;-61
2021/04/20 11:10:26;;;;;;;8.00;2.30;;;;;;;24.93;nan;101942.13;4973257;28;20031;-62
2021/04/20 11:12:53;;;;;;;6.32;2.17;;;;;;;24.95;nan;101944.69;4973873;28;20073;-62
2021/04/20 11:15:25;;;;;;;9.90;2.70;;;;;;;25.02;nan;101940.16;4973886;28;20019;-63
2021/04/20 11:17:53;;;;;;;5.38;2.60;;;;;;;24.96;nan;101936.25;4974143;28;20039;-62
2021/04/20 11:20:37;;;;;;;6.22;2.00;;;;;;;25.07;nan;101922.06;4973464;28;20038;-63
2021/04/20 11:23:12;;;;;;;3.72;1.50;;;;;;;25.09;nan;101927.38;4973876;28;20034;-67
2021/04/20 11:26:04;;;;;;;5.88;2.42;;;;;;;25.23;nan;101921.00;4973757;28;20047;-66
2021/04/20 11:28:41;;;;;;;5.72;2.50;;;;;;;25.14;nan;101911.97;4973713;28;20481;-67
2021/04/20 11:31:18;;;;;;;5.95;2.58;;;;;;;25.12;nan;101910.47;4973636;28;20038;-67
2021/04/20 11:33:53;;;;;;;5.40;2.28;;;;;;;25.09;nan;101908.97;4973823;28;20085;-64
2021/04/20 11:36:24;;;;;;;7.28;2.78;;;;;;;25.15;nan;101902.69;4973301;28;20126;-66
2021/04/20 11:38:59;;;;;;;6.15;2.58;;;;;;;25.14;nan;101895.47;4973463;28;20118;-63
2021/04/20 11:41:30;;;;;;;7.88;2.55;;;;;;;25.15;nan;101896.31;4973315;28;20026;-66
2021/04/20 11:43:59;;;;;;;5.47;2.25;;;;;;;25.22;nan;101891.78;4994030;28;20113;-66
2021/04/20 11:46:27;;;;;;;5.68;2.08;;;;;;;25.01;nan;101895.28;5034963;28;20029;-66
2021/04/20 11:49:06;;;;;;;4.10;2.00;;;;;;;25.04;nan;101894.06;5034532;28;20100;-65
2021/04/20 11:51:33;;;;;;;6.03;2.47;;;;;;;25.16;nan;101881.53;5048672;28;20444;-65
2021/04/20 11:53:59;;;;;;;5.68;2.20;;;;;;;25.03;nan;101876.72;5053946;28;20452;-66
2021/04/20 11:56:25;;;;;;;5.50;2.35;;;;;;;25.09;nan;101866.84;5054146;28;20352;-64
2021/04/20 11:58:56;;;;;;;9.32;2.88;;;;;;;25.23;nan;101868.72;5052955;28;20104;-64
2021/04/20 12:01:22;;;;;;;3.55;1.92;;;;;;;25.06;nan;101873.56;5052977;28;20048;-66
2021/04/20 12:04:06;;;;;;;8.45;2.45;;;;;;;25.17;nan;101861.22;5041025;28;20480;-65